Latest Weather Observations for Halls Creek

IDW60801

Issued at 7:03 pm WST Thursday 23 November 2017 (issued every 30 minutes, with the page automatically refreshed every 10 minutes)

About weather observations | Map of weather stations | Latest weather observations for WA | Other Formats
Station Details ID: 002079 Name: HALLS CREEK AIRPORT Lat: -18.23 Lon: 127.67 Height: 409.4 m
Data from the previous 72 hours. | See also: Recent months at Halls Creek
Date/Time
WST
Temp
°C
App
Temp
°C
Dew
Point
°C
Rel
Hum
%
Delta-T
°C
Wind Press
QNH
hPa
Press
MSL
hPa
Rain since
9am
mm
Dir  Spd
km/h
Gust
km/h
Spd
kts
Gust
kts
23/07:00pm 32.9 31.9 13.5 30 12.0 NW 11 13 6 7 1005.0 1001.6 0.0
23/06:30pm 33.8 32.2 12.7 27 12.9 WNW 13 17 7 9 1004.4 1001.0 0.0
23/06:00pm 34.6 32.7 11.7 25 13.8 WSW 13 17 7 9 1003.9 1000.5 0.0
23/05:30pm 35.4 33.5 11.7 23 14.3 W 13 19 7 10 1003.5 1000.1 0.0
23/05:00pm 35.6 32.6 10.6 22 14.9 WSW 17 26 9 14 1003.4 1000.0 0.0
23/04:30pm 37.3 34.5 12.7 23 15.2 W 19 30 10 16 1003.3 999.9 0.0
23/04:00pm 39.2 35.6 10.5 18 17.3 NW 20 30 11 16 1003.1 999.7 0.0
23/03:30pm 37.8 35.2 13.1 23 15.4 WNW 19 30 10 16 1003.2 999.8 0.0
23/03:00pm 39.7 37.5 13.3 21 16.6 W 17 28 9 15 1003.3 999.9 0.0
23/02:30pm 40.0 37.6 12.8 20 17.0 WNW 17 30 9 16 1003.5 1000.1 0.0
23/02:00pm 40.1 38.8 13.6 21 16.8 W 13 24 7 13 1004.1 1000.7 0.0
23/01:30pm 39.6 36.9 11.7 19 17.1 WSW 17 32 9 17 1004.6 1001.2 0.0
23/01:00pm 38.6 36.5 12.4 21 16.2 W 15 26 8 14 1004.9 1001.5 0.0
23/12:30pm 39.1 36.6 13.5 22 16.1 SSW 19 26 10 14 1005.4 1002.0 0.0
23/12:00pm 37.7 35.4 13.0 23 15.4 SSW 17 28 9 15 1006.0 1002.6 0.0
23/11:30am 37.5 35.6 14.1 24 14.7 SW 17 28 9 15 1006.4 1003.0 0.0
23/11:00am 37.3 35.8 15.2 27 14.2 WSW 17 28 9 15 1006.8 1003.4 0.0
23/10:30am 36.3 34.5 15.9 29 13.1 WSW 20 35 11 19 1007.4 1004.0 0.0
23/10:00am 35.0 32.7 15.8 31 12.3 SW 22 33 12 18 1007.7 1004.3 0.0
23/09:30am 34.7 33.1 16.5 33 11.7 WSW 20 28 11 15 1008.0 1004.6 0.0
23/09:00am 34.0 33.1 18.1 39 10.5 WSW 20 37 11 20 1008.3 1004.9 0.0
23/08:30am 33.2 32.6 18.9 42 9.5 WSW 20 33 11 18 1008.6 1005.2 0.0
23/08:00am 31.9 31.6 19.2 47 8.4 WSW 19 28 10 15 1008.7 1005.3 0.0
23/07:30am 30.5 30.0 19.2 51 7.5 WSW 20 30 11 16 1008.5 1005.1 0.0
23/07:00am 29.8 29.8 20.1 56 6.5 WSW 20 32 11 17 1008.5 1005.1 0.0
23/06:30am 28.6 28.0 19.8 59 5.8 WSW 22 32 12 17 1008.5 1005.1 0.0
23/06:00am 28.0 28.0 19.8 61 5.4 W 19 30 10 16 1008.2 1004.8 0.0
23/05:30am 27.0 27.4 19.9 65 4.7 W 17 26 9 14 1007.8 1004.4 0.0
23/05:00am 26.3 26.7 19.9 68 4.2 W 17 26 9 14 1007.2 1003.9 0.0
23/04:30am 26.4 26.8 19.8 67 4.4 W 17 24 9 13 1006.9 1003.5 0.0
23/04:00am 26.3 26.9 19.4 66 4.5 WSW 15 20 8 11 1006.8 1003.4 0.0
23/03:30am 26.4 26.5 18.3 61 5.2 W 15 20 8 11 1006.7 1003.3 0.0
23/03:00am 26.5 27.4 17.6 58 5.7 W 9 11 5 6 1006.0 1002.6 0.0
23/02:30am 27.9 27.9 17.1 51 6.9 WNW 13 20 7 11 1005.2 1001.8 0.0
23/02:00am 27.8 27.8 17.3 52 6.7 W 13 26 7 14 1005.1 1001.7 0.0
23/01:30am 25.5 28.2 17.7 62 5.0 CALM 0 0 0 0 1005.0 1001.6 0.0
23/01:00am 27.3 27.6 16.9 53 6.6 WNW 11 15 6 8 1005.1 1001.7 0.0
23/12:30am 27.1 27.7 17.6 56 6.1 WNW 11 15 6 8 1005.4 1002.0 0.0
23/12:00am 25.9 26.3 18.1 62 5.0 SW 13 17 7 9 1006.0 1002.6 0.0
 
Date/Time
WST
Temp
°C
App
Temp
°C
Dew
Point
°C
Rel
Hum
%
Delta-T
°C
Wind Press
QNH
hPa
Press
MSL
hPa
Rain since
9am
mm
Dir  Spd
km/h
Gust
km/h
Spd
kts
Gust
kts
22/11:30pm 25.6 27.7 18.0 63 4.9 SSW 4 7 2 4 1005.9 1002.5 0.0
22/11:00pm 26.4 29.0 17.5 58 5.7 CALM 0 0 0 0 1006.2 1002.8 0.0
22/10:30pm 28.7 29.0 16.9 48 7.5 WNW 11 17 6 9 1006.3 1002.9 0.0
22/10:00pm 28.8 28.7 17.0 49 7.5 NW 13 17 7 9 1006.5 1003.1 0.0
22/09:30pm 28.5 29.2 17.1 50 7.3 NW 9 13 5 7 1006.6 1003.2 0.0
22/09:00pm 28.5 29.6 17.1 50 7.3 NW 7 11 4 6 1006.5 1003.1 0.0
22/08:30pm 29.1 29.0 17.0 48 7.7 NW 13 15 7 8 1006.3 1002.9 0.0
22/08:00pm 29.6 29.8 16.8 46 8.2 NNW 11 15 6 8 1006.1 1002.7 0.0
22/07:30pm 29.8 30.3 16.6 45 8.4 NNW 9 13 5 7 1006.0 1002.6 0.0
22/07:00pm 30.6 30.6 16.2 41 9.2 NW 11 13 6 7 1005.9 1002.5 0.0
22/06:30pm 31.2 31.1 16.0 40 9.6 NW 11 13 6 7 1005.5 1002.1 0.0
22/06:00pm 32.1 32.2 15.6 37 10.5 NW 9 11 5 6 1005.2 1001.8 0.0
22/05:30pm 34.0 34.1 15.5 33 11.7 WNW 9 11 5 6 1004.9 1001.5 0.0
22/05:00pm 35.3 35.6 15.1 30 12.8 WNW 7 11 4 6 1004.9 1001.5 0.0
22/04:30pm 35.6 35.4 14.8 28 13.1 WNW 9 15 5 8 1004.7 1001.4 0.0
22/04:00pm 36.2 35.5 15.3 28 13.4 W 13 20 7 11 1004.6 1001.2 0.0
22/03:30pm 36.4 35.7 14.4 27 13.9 WSW 11 17 6 9 1004.6 1001.2 0.0
22/03:00pm 36.1 35.3 15.2 28 13.3 SSW 13 20 7 11 1004.5 1001.1 0.0
22/02:30pm 35.7 35.2 15.9 30 12.7 WSW 13 24 7 13 1004.7 1001.4 0.0
22/02:00pm 35.1 34.6 15.9 31 12.3 W 13 20 7 11 1005.3 1001.9 0.0
22/01:30pm 35.4 35.4 16.2 32 12.4 W 11 17 6 9 1005.7 1002.3 0.0
22/01:00pm 33.8 33.2 16.6 35 11.1 WSW 15 24 8 13 1006.1 1002.7 0.0
22/12:30pm 33.5 33.6 19.9 44 9.2 WSW 19 28 10 15 1006.6 1003.2 0.0
22/12:00pm 32.3 32.2 19.5 46 8.6 W 19 28 10 15 1007.0 1003.7 0.0
22/11:30am 32.2 31.7 19.1 45 8.7 W 20 32 11 17 1007.7 1004.3 0.0
22/11:00am 32.4 31.0 18.9 44 9.0 WNW 24 35 13 19 1008.2 1004.8 0.0
22/10:30am 32.2 31.0 18.4 44 9.1 W 22 33 12 18 1008.6 1005.2 0.0
22/10:00am 30.9 29.8 18.6 48 8.1 W 22 35 12 19 1009.1 1005.7 0.0
22/09:30am 29.2 29.0 18.6 52 6.9 WNW 17 22 9 12 1009.0 1005.6 0.0
22/09:00am 28.0 28.0 19.0 58 5.9 NW 17 24 9 13 1009.4 1006.1 0.0
22/08:30am 26.6 27.3 19.7 66 4.5 NNW 15 26 8 14 1009.4 1006.1 0.0
22/08:00am 24.7 25.9 19.8 74 3.2 N 13 20 7 11 1009.7 1006.4 0.0
22/07:30am 24.3 25.5 19.8 76 2.9 N 13 19 7 10 1009.5 1006.2 0.0
22/07:00am 23.9 24.3 19.8 78 2.7 N 17 24 9 13 1008.9 1005.5 0.0
22/06:30am 23.8 24.3 20.1 80 2.4 NNW 17 24 9 13 1009.1 1005.7 0.0
22/06:00am 23.8 24.1 19.7 78 2.7 N 17 26 9 14 1009.0 1005.6 0.0
22/05:30am 24.1 25.1 19.4 75 3.1 N 13 19 7 10 1009.6 1006.3 0.0
22/05:00am 24.2 25.9 19.3 74 3.2 NNW 9 13 5 7 1009.8 1006.5 0.0
22/04:30am 24.7 26.9 19.5 73 3.4 W 7 15 4 8 1009.2 1005.9 0.0
22/04:00am 25.0 25.8 19.1 70 3.8 N 13 17 7 9 1007.7 1004.3 0.0
22/03:30am 25.2 25.8 18.6 67 4.3 N 13 19 7 10 1007.2 1003.9 0.0
22/03:00am 25.2 25.8 18.6 67 4.3 N 13 19 7 10 1007.0 1003.7 0.0
22/02:30am 25.1 25.5 19.0 69 4.0 N 15 24 8 13 1006.8 1003.4 0.0
22/02:00am 25.2 26.5 20.2 74 3.3 NNE 13 17 7 9 1006.9 1003.5 0.0
22/01:30am 26.1 26.0 19.5 67 4.3 NNE 19 32 10 17 1006.8 1003.4 0.0
22/01:00am 28.1 28.1 20.1 62 5.3 ENE 20 28 11 15 1006.8 1003.4 0.0
22/12:30am 30.2 29.4 19.3 52 7.2 E 22 46 12 25 1006.2 1002.8 0.0
22/12:00am 29.5 30.9 19.5 55 6.6 NNW 11 15 6 8 1006.1 1002.7 0.0
 
Date/Time
WST
Temp
°C
App
Temp
°C
Dew
Point
°C
Rel
Hum
%
Delta-T
°C
Wind Press
QNH
hPa
Press
MSL
hPa
Rain since
9am
mm
Dir  Spd
km/h
Gust
km/h
Spd
kts
Gust
kts
21/11:30pm 28.4 31.3 20.7 63 5.2 N 6 11 3 6 1006.4 1003.0 0.0
21/11:00pm 28.1 29.9 19.6 60 5.6 SSW 9 11 5 6 1006.7 1003.3 0.0
21/10:30pm 29.7 30.6 18.5 51 7.3 NW 11 13 6 7 1007.0 1003.7 0.0
21/10:00pm 29.8 30.9 18.9 52 7.2 WNW 11 15 6 8 1007.2 1003.9 0.0
21/09:30pm 29.7 31.3 19.1 53 7.0 NW 9 13 5 7 1007.4 1004.0 0.0
21/09:00pm 29.8 31.6 19.5 54 6.8 NNW 9 11 5 6 1007.4 1004.0 0.0
21/08:30pm 30.2 31.7 18.9 50 7.4 NW 9 9 5 5 1007.2 1003.9 0.0
21/08:00pm 31.1 32.0 18.5 47 8.3 NW 11 15 6 8 1006.8 1003.4 0.0
21/07:30pm 31.1 32.4 18.5 47 8.3 NW 9 11 5 6 1006.7 1003.3 0.0
21/07:00pm 31.2 32.8 19.2 48 8.0 NW 9 11 5 6 1006.5 1003.1 0.0
21/06:30pm 31.0 32.8 18.7 48 8.1 NW 7 9 4 5 1006.1 1002.7 0.0
21/06:00pm 31.6 35.4 20.2 50 7.7 CALM 0 0 0 0 1005.7 1002.3 0.0
21/05:30pm 32.9 36.0 18.7 43 9.4 CALM 0 0 0 0 1005.5 1002.1 0.0
21/05:00pm 34.8 36.3 18.0 37 11.1 W 7 9 4 5 1005.4 1002.0 0.0
21/04:30pm 34.4 35.9 18.0 37 10.8 W 7 9 4 5 1005.3 1001.9 0.0
21/04:00pm 35.1 35.4 16.9 34 11.9 WNW 11 15 6 8 1005.3 1001.9 0.0
21/03:30pm 35.3 36.2 17.5 34 11.7 WSW 9 13 5 7 1005.6 1002.2 0.0
21/03:00pm 35.0 35.0 16.3 32 12.1 W 11 13 6 7 1005.7 1002.3 0.0
21/02:30pm 36.0 35.8 16.7 31 12.5 S 13 19 7 10 1005.8 1002.4 0.0
21/02:00pm 37.1 37.8 17.1 30 13.1 SW 9 20 5 11 1006.1 1002.7 0.0
21/01:30pm 36.4 36.3 17.0 31 12.7 WSW 13 28 7 15 1006.6 1003.2 0.0
21/01:00pm 36.4 38.1 18.5 35 11.9 WNW 7 13 4 7 1006.9 1003.5 0.0
21/12:30pm 35.7 37.1 18.7 36 11.3 SW 9 19 5 10 1007.6 1004.2 0.0
21/12:00pm 35.0 36.3 20.2 42 10.1 SW 13 24 7 13 1008.1 1004.7 0.0
21/11:30am 34.5 35.0 20.1 43 9.7 W 17 26 9 14 1008.5 1005.1 0.0
21/11:00am 32.6 33.7 20.5 49 8.2 W 15 20 8 11 1009.4 1006.1 0.0
21/10:30am 30.6 30.8 20.5 54 6.8 WSW 20 30 11 16 1010.0 1006.6 0.0
21/10:00am 29.7 28.7 20.5 57 6.2 WSW 26 33 14 18 1010.3 1006.9 0.0
21/09:30am 30.4 30.6 20.6 55 6.6 WSW 20 28 11 15 1011.0 1007.6 0.0
21/09:00am 29.5 31.0 21.2 61 5.6 W 15 26 8 14 1011.6 1008.3 0.4
21/08:30am 28.2 29.6 21.0 65 4.9 WNW 15 22 8 12 1011.9 1008.6 0.4
21/08:00am 27.9 30.1 21.2 67 4.5 NW 11 19 6 10 1011.8 1008.5 0.4
21/07:30am 26.6 29.3 21.4 73 3.5 NNW 9 13 5 7 1011.8 1008.5 0.4
21/07:00am 25.7 28.4 21.4 77 2.9 NNW 9 13 5 7 1011.5 1008.2 0.4
21/06:30am 25.3 28.0 21.4 79 2.6 NNW 9 15 5 8 1011.1 1007.7 0.4
21/06:00am 25.0 27.2 21.1 79 2.6 NW 11 19 6 10 1010.7 1007.3 0.4
21/05:30am 25.1 27.2 21.0 78 2.7 NNW 11 19 6 10 1010.3 1006.9 0.4
21/05:00am 25.2 26.5 20.9 77 2.9 NNW 15 22 8 12 1009.4 1006.1 0.4
21/04:30am 25.5 26.9 20.3 73 3.4 NW 13 17 7 9 1009.5 1006.2 0.4
21/04:00am 25.8 27.5 20.1 71 3.8 NW 11 17 6 9 1009.0 1005.6 0.4
21/03:30am 26.1 27.2 19.7 68 4.2 WNW 13 24 7 13 1008.8 1005.4 0.4
21/03:00am 25.9 26.7 19.8 69 4.0 NW 15 20 8 11 1008.6 1005.2 0.4
21/02:30am 26.1 27.2 19.7 68 4.2 WNW 13 20 7 11 1009.0 1005.6 0.4
21/02:00am 25.5 27.5 20.7 75 3.2 WSW 11 15 6 8 1009.0 1005.6 0.4
21/01:41am 25.6 26.8 20.6 74 3.3 SW 15 20 8 11 1008.6 1005.2 0.4
21/01:30am 25.9 27.4 20.5 72 3.6 SW 13 20 7 11 1008.5 1005.1 0.4
21/01:10am 26.3 29.0 20.2 69 4.0 WNW 6 9 3 5 1008.7 1005.3 0.4
21/01:00am 26.5 29.0 19.9 67 4.4 NNW 6 9 3 5 1008.7 1005.3 0.4
21/12:30am 26.7 27.9 19.8 66 4.6 N 13 19 7 10 1009.0 1005.6 0.4
21/12:00am 26.7 27.2 20.1 67 4.4 NNE 17 22 9 12 1009.2 1005.9 0.4
 
Date/Time
WST
Temp
°C
App
Temp
°C
Dew
Point
°C
Rel
Hum
%
Delta-T
°C
Wind Press
QNH
hPa
Press
MSL
hPa
Rain since
9am
mm
Dir  Spd
km/h
Gust
km/h
Spd
kts
Gust
kts
20/11:30pm 26.9 28.4 19.8 65 4.7 WNW 11 17 6 9 1009.6 1006.3 0.4
20/11:00pm 28.4 28.6 19.3 57 6.0 NW 17 26 9 14 1009.2 1005.9 0.4
20/10:30pm 29.2 28.7 19.2 54 6.6 WSW 20 32 11 17 1009.3 1006.0 0.4
20/10:00pm 28.8 31.0 21.8 66 4.8 W 13 24 7 13 1009.3 1006.0 0.4
20/09:30pm 28.9 33.0 22.9 70 4.2 SW 6 11 3 6 1009.2 1005.9 0.4
20/09:00pm 29.0 33.7 23.4 72 3.9 W 4 6 2 3 1009.2 1005.9 0.4
20/08:30pm 29.2 33.2 22.7 68 4.5 WSW 6 7 3 4 1009.1 1005.7 0.4
20/08:00pm 29.4 34.3 22.4 66 4.8 CALM 0 0 0 0 1009.1 1005.7 0.4
20/07:30pm 29.5 34.6 23.4 69 4.3 SW 2 6 1 3 1008.8 1005.4 0.4

Other Formats:

Comma delimited format used in spreadsheet applications
http://www.bom.gov.au/fwo/IDW60801/IDW60801.94212.axf

JavaScript Object Notation format (JSON) in row-major order
http://www.bom.gov.au/fwo/IDW60801/IDW60801.94212.json